createdAt,value
2023-03-18T00:00:49.409Z,100158.69
2023-03-18T00:03:16.284Z,100162.56
2023-03-18T00:05:42.995Z,100052.25
2023-03-18T00:08:09.627Z,100073.47
2023-03-18T00:10:36.122Z,100139.84
2023-03-18T00:13:04.452Z,100152.66
2023-03-18T00:15:30.827Z,100081.72
2023-03-18T00:17:59.092Z,100098.78
2023-03-18T00:20:38.312Z,100056.56
2023-03-18T00:23:08.304Z,100138.66
2023-03-18T00:25:35.822Z,100046.28
2023-03-18T00:28:06.966Z,100128.81
2023-03-18T00:30:37.623Z,100116.72
2023-03-18T00:33:04.307Z,100054.31
2023-03-18T00:35:30.945Z,100127.78
2023-03-18T00:38:03.807Z,100150.63
2023-03-18T00:40:43.142Z,100123.31
2023-03-18T00:43:11.128Z,100138.53
2023-03-18T00:45:39.462Z,100140.50
2023-03-18T00:48:07.520Z,100036.81
2023-03-18T00:50:40.284Z,100154.31
2023-03-18T00:53:07.001Z,100089.50
2023-03-18T00:55:33.449Z,100110.09
2023-03-18T00:57:59.779Z,100161.09
2023-03-18T01:00:26.296Z,100085.91
2023-03-18T01:02:53.361Z,100169.78
2023-03-18T01:05:20.151Z,100105.41
2023-03-18T01:07:47.247Z,100095.88
2023-03-18T01:10:15.761Z,100191.91
2023-03-18T01:12:46.474Z,100140.47
2023-03-18T01:15:17.599Z,100183.72
2023-03-18T01:17:45.436Z,100078.31
2023-03-18T01:20:15.114Z,100139.03
2023-03-18T01:22:42.134Z,100145.00
2023-03-18T01:25:10.166Z,100128.03
2023-03-18T01:27:36.813Z,100137.75
2023-03-18T01:30:04.438Z,100029.84
2023-03-18T01:32:31.003Z,100046.59
2023-03-18T01:34:58.131Z,100116.97
2023-03-18T01:39:49.785Z,100129.19
2023-03-18T01:42:18.173Z,100028.84
2023-03-18T01:44:46.236Z,100121.53
2023-03-18T01:47:13.434Z,100091.84
2023-03-18T01:49:45.049Z,100137.75
2023-03-18T01:52:16.289Z,100155.22
2023-03-18T01:54:47.501Z,100038.44
2023-03-18T01:57:17.266Z,100128.41
2023-03-18T01:59:46.883Z,100040.38
2023-03-18T02:02:15.870Z,100142.41
2023-03-18T02:04:53.901Z,100171.09
2023-03-18T02:07:24.496Z,100159.22
2023-03-18T02:09:52.903Z,100057.19
2023-03-18T02:12:24.871Z,100030.69
2023-03-18T02:14:53.049Z,100177.63
2023-03-18T02:17:24.536Z,100158.25
2023-03-18T02:19:54.269Z,100154.31
2023-03-18T02:22:34.040Z,100134.88
2023-03-18T02:25:21.931Z,100159.78
2023-03-18T02:27:53.496Z,100110.44
2023-03-18T02:30:25.980Z,100152.09
2023-03-18T02:32:53.963Z,100155.84
2023-03-18T02:35:20.683Z,100154.03
2023-03-18T02:37:47.027Z,100152.19
2023-03-18T02:40:16.431Z,100164.03
2023-03-18T02:42:43.207Z,100046.22
2023-03-18T02:45:33.209Z,100024.72
2023-03-18T02:48:01.042Z,100131.47
2023-03-18T02:50:28.024Z,100136.91
2023-03-18T02:52:54.381Z,100120.66
2023-03-18T02:55:21.072Z,100024.00
2023-03-18T02:57:47.435Z,100111.94
2023-03-18T03:00:14.424Z,100148.66
2023-03-18T03:02:41.172Z,100154.72
2023-03-18T03:05:09.213Z,100163.25
2023-03-18T03:07:35.773Z,100165.63
2023-03-18T03:10:03.051Z,100133.50
2023-03-18T03:12:29.403Z,100029.31
2023-03-18T03:14:56.518Z,100089.78
2023-03-18T03:17:22.932Z,100150.06
2023-03-18T03:19:49.559Z,100140.88
2023-03-18T03:22:17.300Z,100185.25
2023-03-18T03:24:45.036Z,100161.06
2023-03-18T03:27:12.394Z,100193.28
2023-03-18T03:29:39.411Z,100140.78
2023-03-18T03:32:05.916Z,100016.59
2023-03-18T03:34:32.306Z,100158.47
2023-03-18T03:36:58.869Z,100166.75
2023-03-18T03:39:25.221Z,100169.63
2023-03-18T03:41:52.776Z,100184.50
2023-03-18T03:44:19.476Z,100178.41
2023-03-18T03:46:46.088Z,100166.63
2023-03-18T03:49:12.544Z,100110.56
2023-03-18T03:51:38.870Z,100191.03
2023-03-18T03:54:05.226Z,100198.09
2023-03-18T03:56:32.014Z,100083.63
2023-03-18T03:58:58.476Z,100216.56
2023-03-18T04:01:24.829Z,100162.78
2023-03-18T04:03:51.305Z,100087.25
2023-03-18T04:06:17.758Z,100115.16
2023-03-18T04:08:44.161Z,100162.78
2023-03-18T04:11:11.018Z,100075.50
2023-03-18T04:13:37.395Z,100104.75
2023-03-18T04:16:03.817Z,100111.44
2023-03-18T04:18:30.445Z,100143.31
2023-03-18T04:20:56.912Z,100233.78
2023-03-18T04:23:23.253Z,100212.34
2023-03-18T04:25:49.629Z,100125.84
2023-03-18T04:28:16.294Z,100240.22
2023-03-18T04:30:42.684Z,100230.66
2023-03-18T04:33:10.099Z,100241.16
2023-03-18T04:35:37.558Z,100212.63
2023-03-18T04:38:04.513Z,100228.88
2023-03-18T04:40:31.258Z,100246.84
2023-03-18T04:42:58.016Z,100249.41
2023-03-18T04:45:24.998Z,100235.59
2023-03-18T04:47:51.662Z,100226.72
2023-03-18T04:50:19.325Z,100248.06
2023-03-18T04:52:46.400Z,100226.59
2023-03-18T04:55:16.269Z,100080.84
2023-03-18T04:57:43.384Z,100191.75
2023-03-18T05:00:14.721Z,100253.31
2023-03-18T05:02:41.317Z,100153.19
2023-03-18T05:05:08.781Z,100204.25
2023-03-18T05:07:35.426Z,100137.75
2023-03-18T05:10:02.125Z,100210.41
2023-03-18T05:12:28.498Z,100238.16
2023-03-18T05:14:54.879Z,100259.56
2023-03-18T05:17:21.474Z,100175.00
2023-03-18T05:19:48.986Z,100269.06
2023-03-18T05:22:17.481Z,100265.75
2023-03-18T05:24:46.061Z,100248.88
2023-03-18T05:27:18.249Z,100202.63
2023-03-18T05:29:45.881Z,100278.16
2023-03-18T05:32:12.808Z,100278.16
2023-03-18T05:34:40.066Z,100283.38
2023-03-18T05:37:09.953Z,100277.34
2023-03-18T05:39:36.992Z,100260.09
2023-03-18T05:42:04.692Z,100275.31
2023-03-18T05:44:31.355Z,100172.75
2023-03-18T05:46:58.485Z,100165.03
2023-03-18T05:49:24.944Z,100243.31
2023-03-18T05:51:53.216Z,100279.75
2023-03-18T05:54:21.204Z,100253.31
2023-03-18T05:56:47.578Z,100272.00
2023-03-18T05:59:15.230Z,100249.88
2023-03-18T06:01:41.902Z,100275.75
2023-03-18T06:04:10.151Z,100296.22
2023-03-18T06:06:39.508Z,100202.19
2023-03-18T06:09:10.696Z,100190.31
2023-03-18T06:11:37.178Z,100268.06
2023-03-18T06:14:05.464Z,100291.19
2023-03-18T06:16:33.786Z,100266.41
2023-03-18T06:19:00.303Z,100277.91
2023-03-18T06:21:27.127Z,100266.63
2023-03-18T06:23:54.605Z,100270.94
2023-03-18T06:26:21.889Z,100267.81
2023-03-18T06:28:48.512Z,100237.63
2023-03-18T06:31:15.164Z,100295.91
2023-03-18T06:33:41.717Z,100286.25
2023-03-18T06:36:08.644Z,100303.94
2023-03-18T06:38:35.068Z,100294.63
2023-03-18T06:41:01.921Z,100280.81
2023-03-18T06:43:28.341Z,100225.22
2023-03-18T06:45:54.801Z,100313.38
2023-03-18T06:48:21.187Z,100266.44
2023-03-18T06:50:47.655Z,100236.28
2023-03-18T06:53:14.143Z,100274.69
2023-03-18T06:55:41.370Z,100279.53
2023-03-18T06:58:07.768Z,100295.00
2023-03-18T07:00:34.303Z,100112.44
2023-03-18T07:03:01.612Z,100316.06
2023-03-18T07:05:28.889Z,100199.91
2023-03-18T07:07:55.336Z,100308.94
2023-03-18T07:10:25.526Z,100270.56
2023-03-18T07:12:52.451Z,100310.09
2023-03-18T07:15:22.536Z,100301.03
2023-03-18T07:17:50.301Z,100336.13
2023-03-18T07:20:16.935Z,100297.03
2023-03-18T07:22:45.578Z,100327.94
2023-03-18T07:25:13.254Z,100293.63
2023-03-18T07:27:40.438Z,100264.16
2023-03-18T07:30:09.470Z,100316.81
2023-03-18T07:32:37.298Z,100233.56
2023-03-18T07:35:05.689Z,100235.06
2023-03-18T07:37:33.193Z,100328.00
2023-03-18T07:39:59.628Z,100313.03
2023-03-18T07:42:26.005Z,100339.44
2023-03-18T07:44:52.382Z,100317.72
2023-03-18T07:47:20.657Z,100329.50
2023-03-18T07:49:47.128Z,100277.16
2023-03-18T07:52:13.574Z,100327.44
2023-03-18T07:54:40.309Z,100314.78
2023-03-18T07:57:06.933Z,100346.88
2023-03-18T07:59:33.421Z,100278.34
2023-03-18T08:01:59.865Z,100334.28
2023-03-18T08:04:26.438Z,100353.25
2023-03-18T08:06:53.361Z,100337.22
2023-03-18T08:09:19.814Z,100267.75
2023-03-18T08:11:46.697Z,100364.78
2023-03-18T08:14:13.803Z,100374.56
2023-03-18T08:16:44.831Z,100372.47
2023-03-18T08:19:12.511Z,100329.81
2023-03-18T08:21:43.597Z,100317.38
2023-03-18T08:24:21.425Z,100380.97
2023-03-18T08:26:51.869Z,100234.59
2023-03-18T08:29:18.579Z,100286.13
2023-03-18T08:31:49.545Z,100383.75
2023-03-18T08:34:24.889Z,100253.44
2023-03-18T08:36:52.041Z,100403.50
2023-03-18T08:39:18.749Z,100331.31
2023-03-18T08:41:45.888Z,100309.50
2023-03-18T08:44:12.421Z,100259.69
2023-03-18T08:46:39.086Z,100392.06
2023-03-18T08:49:07.637Z,100389.72
2023-03-18T08:51:34.313Z,100268.91
2023-03-18T08:54:00.813Z,100364.25
2023-03-18T08:56:27.675Z,100382.81
2023-03-18T08:58:54.502Z,100307.09
2023-03-18T09:01:22.332Z,100384.63
2023-03-18T09:03:49.743Z,100392.72
2023-03-18T09:06:16.761Z,100382.22
2023-03-18T09:09:06.821Z,100395.63
2023-03-18T09:11:33.757Z,100324.00
2023-03-18T09:14:00.707Z,100275.13
2023-03-18T09:16:27.209Z,100274.56
2023-03-18T09:18:54.103Z,100372.44
2023-03-18T09:21:20.590Z,100378.34
2023-03-18T09:23:47.124Z,100384.97
2023-03-18T09:26:14.754Z,100380.19
2023-03-18T09:28:41.408Z,100314.44
2023-03-18T09:31:08.074Z,100311.34
2023-03-18T09:33:36.890Z,100315.78
2023-03-18T09:36:04.376Z,100378.53
2023-03-18T09:38:31.574Z,100296.13
2023-03-18T09:41:11.101Z,100290.00
2023-03-18T09:43:44.879Z,100385.59
2023-03-18T09:46:42.662Z,100372.69
2023-03-18T09:49:27.346Z,100379.50
2023-03-18T09:52:16.772Z,100344.34
2023-03-18T09:54:58.985Z,100322.75
2023-03-18T09:57:47.516Z,100373.06
2023-03-18T10:00:29.576Z,100367.31
2023-03-18T10:03:05.837Z,100365.09
2023-03-18T10:05:38.048Z,100339.97
2023-03-18T10:08:15.211Z,100331.69
2023-03-18T10:10:48.671Z,100361.84
2023-03-18T10:13:29.885Z,100261.28
2023-03-18T10:15:59.576Z,100383.38
2023-03-18T10:18:43.282Z,100388.69
2023-03-18T10:21:15.845Z,100389.00
2023-03-18T10:24:12.758Z,100382.59
2023-03-18T10:27:20.264Z,100372.06
2023-03-18T10:30:05.392Z,100374.47
2023-03-18T10:33:28.831Z,100315.38
2023-03-18T10:36:05.930Z,100333.78
2023-03-18T10:38:39.606Z,100350.94
2023-03-18T10:41:15.890Z,100319.28
2023-03-18T10:43:43.023Z,100275.53
2023-03-18T10:46:14.181Z,100341.97
2023-03-18T10:48:49.590Z,100314.19
2023-03-18T10:51:43.566Z,100361.94
2023-03-18T10:54:31.429Z,100365.47
2023-03-18T10:56:58.923Z,100302.94
2023-03-18T10:59:26.955Z,100361.69
2023-03-18T11:01:59.381Z,100371.06
2023-03-18T11:04:28.342Z,100360.88
2023-03-18T11:06:55.587Z,100382.91
2023-03-18T11:09:32.026Z,100347.84
2023-03-18T11:12:06.718Z,100374.06
2023-03-18T11:14:37.287Z,100351.91
2023-03-18T11:17:20.440Z,100325.63
2023-03-18T11:20:01.947Z,100377.75
2023-03-18T11:22:29.939Z,100356.22
2023-03-18T11:25:17.910Z,100343.81
2023-03-18T11:27:50.378Z,100307.28
2023-03-18T11:30:34.045Z,100381.38
2023-03-18T11:33:10.453Z,100385.63
2023-03-18T11:35:41.741Z,100383.25
2023-03-18T11:38:15.851Z,100381.94
2023-03-18T11:40:42.254Z,100345.69
2023-03-18T11:43:19.518Z,100344.34
2023-03-18T11:45:54.379Z,100366.66
2023-03-18T11:48:37.839Z,100379.28
2023-03-18T11:51:27.024Z,100359.53
2023-03-18T11:54:15.407Z,100372.44
2023-03-18T11:57:08.591Z,100336.59
2023-03-18T11:59:44.435Z,100363.63
2023-03-18T12:02:19.943Z,100371.25
2023-03-18T12:05:24.878Z,100361.53
2023-03-18T12:08:12.657Z,100364.88
2023-03-18T12:10:48.528Z,100352.94
2023-03-18T12:14:00.140Z,100369.44
2023-03-18T12:17:17.892Z,100242.09
2023-03-18T12:19:59.905Z,100363.38
2023-03-18T12:22:51.111Z,100339.84
2023-03-18T12:25:32.879Z,100368.47
2023-03-18T12:28:08.493Z,100364.94
2023-03-18T12:31:04.329Z,100370.78
2023-03-18T12:34:01.200Z,100313.97
2023-03-18T12:36:50.082Z,100344.72
2023-03-18T12:39:45.951Z,100377.94
2023-03-18T12:42:35.948Z,100338.91
2023-03-18T12:45:13.057Z,100354.66
2023-03-18T12:47:46.688Z,100363.13
2023-03-18T12:50:20.351Z,100373.81
2023-03-18T12:53:03.122Z,100326.84
2023-03-18T12:55:40.419Z,100343.44
2023-03-18T12:58:23.116Z,100369.72
2023-03-18T13:00:59.339Z,100336.44
2023-03-18T13:03:26.262Z,100384.84
2023-03-18T13:06:08.634Z,100392.19
2023-03-18T13:09:01.835Z,100373.63
2023-03-18T13:11:34.457Z,100403.09
2023-03-18T13:14:08.120Z,100372.03
2023-03-18T13:16:37.619Z,100311.09
2023-03-18T13:19:04.829Z,100249.53
2023-03-18T13:21:35.289Z,100370.78
2023-03-18T13:24:12.568Z,100262.00
2023-03-18T13:26:56.939Z,100393.31
2023-03-18T13:29:40.534Z,100292.09
2023-03-18T13:32:25.284Z,100389.19
2023-03-18T13:35:14.400Z,100388.78
2023-03-18T13:37:55.997Z,100375.38
2023-03-18T13:40:36.916Z,100384.19
2023-03-18T13:43:05.770Z,100340.78
2023-03-18T13:45:34.657Z,100250.47
2023-03-18T13:48:07.467Z,100377.63
2023-03-18T13:50:43.239Z,100351.44
2023-03-18T13:53:40.336Z,100350.50
2023-03-18T13:56:28.497Z,100286.97
2023-03-18T13:58:55.098Z,100306.47
2023-03-18T14:01:24.337Z,100347.72
2023-03-18T14:03:51.050Z,100347.28
2023-03-18T14:06:52.250Z,100192.53
2023-03-18T14:09:32.835Z,100318.22
2023-03-18T14:12:17.062Z,100267.25
2023-03-18T14:14:53.662Z,100325.34
2023-03-18T14:17:58.225Z,100317.91
2023-03-18T14:20:38.401Z,100236.84
2023-03-18T14:23:38.635Z,100319.72
2023-03-18T14:26:23.354Z,100320.16
2023-03-18T14:29:10.185Z,100321.09
2023-03-18T14:31:39.651Z,100315.69
2023-03-18T14:34:18.635Z,100313.66
2023-03-18T14:37:19.186Z,100192.69
2023-03-18T14:39:49.291Z,100269.53
2023-03-18T14:42:45.893Z,100296.19
2023-03-18T14:45:24.674Z,100202.41
2023-03-18T14:47:54.304Z,100200.41
2023-03-18T14:50:40.060Z,100293.75
2023-03-18T14:53:12.112Z,100291.47
2023-03-18T14:55:40.138Z,100249.38
2023-03-18T14:58:06.989Z,100281.94
2023-03-18T15:00:36.685Z,100268.69
2023-03-18T15:03:18.068Z,100286.78
2023-03-18T15:05:46.544Z,100301.63
2023-03-18T15:08:19.123Z,100180.28
2023-03-18T15:10:51.521Z,100274.00
2023-03-18T15:16:15.107Z,100165.56
2023-03-18T15:18:53.014Z,100148.97
2023-03-18T15:21:23.863Z,100285.59
2023-03-18T15:23:57.310Z,100220.34
2023-03-18T15:26:28.643Z,100081.91
2023-03-18T15:28:58.317Z,100280.16
2023-03-18T15:31:38.171Z,100148.16
2023-03-18T15:34:30.820Z,100288.75
2023-03-18T15:37:00.785Z,100197.41
2023-03-18T15:39:37.213Z,100291.94
2023-03-18T15:42:16.738Z,100295.34
2023-03-18T15:44:46.311Z,100278.31
2023-03-18T15:47:19.813Z,100160.75
2023-03-18T15:49:54.875Z,100294.19
2023-03-18T15:52:33.310Z,100270.59
2023-03-18T15:55:01.197Z,100204.31
2023-03-18T15:57:35.782Z,100291.09
2023-03-18T16:00:15.701Z,100267.47
2023-03-18T16:02:42.135Z,100282.75
2023-03-18T16:05:29.089Z,100273.16
2023-03-18T16:07:56.167Z,100299.41
2023-03-18T16:10:26.627Z,100150.94
2023-03-18T16:12:57.845Z,100276.63
2023-03-18T16:15:25.785Z,100223.59
2023-03-18T16:17:53.747Z,100187.78
2023-03-18T16:20:27.428Z,100168.66
2023-03-18T16:22:54.304Z,100143.56
2023-03-18T16:25:21.334Z,100288.78
2023-03-18T16:27:50.223Z,100265.00
2023-03-18T16:30:23.280Z,100250.50
2023-03-18T16:32:50.338Z,100292.50
2023-03-18T16:35:30.654Z,100279.97
2023-03-18T16:38:00.742Z,100266.06
2023-03-18T16:40:29.345Z,100295.13
2023-03-18T16:42:55.870Z,100197.03
2023-03-18T16:45:31.154Z,100258.72
2023-03-18T16:48:01.144Z,100257.91
2023-03-18T16:50:30.887Z,100283.09
2023-03-18T16:52:57.271Z,100173.09
2023-03-18T16:55:25.475Z,100198.09
2023-03-18T16:57:59.451Z,100274.28
2023-03-18T17:00:31.623Z,100315.59
2023-03-18T17:02:59.898Z,100330.38
2023-03-18T17:05:27.729Z,100294.16
2023-03-18T17:07:54.138Z,100279.19
2023-03-18T17:10:27.660Z,100317.66
2023-03-18T17:12:59.441Z,100320.84
2023-03-18T17:15:29.636Z,100294.31
2023-03-18T17:17:58.470Z,100294.72
2023-03-18T17:20:27.290Z,100318.44
2023-03-18T17:22:54.421Z,100329.03
2023-03-18T17:25:21.672Z,100229.63
2023-03-18T17:27:55.334Z,100296.03
2023-03-18T17:30:37.665Z,100334.91
2023-03-18T17:33:05.183Z,100311.19
2023-03-18T17:35:32.316Z,100299.16
2023-03-18T17:37:59.089Z,100320.53
2023-03-18T17:40:29.512Z,100309.81
2023-03-18T17:42:56.213Z,100341.94
2023-03-18T17:45:32.419Z,100318.06
2023-03-18T17:48:19.775Z,100332.25
2023-03-18T17:51:13.284Z,100281.56
2023-03-18T17:53:48.131Z,100314.88
2023-03-18T17:56:17.761Z,100338.47
2023-03-18T17:58:49.262Z,100334.50
2023-03-18T18:01:27.599Z,100316.44
2023-03-18T18:03:56.952Z,100335.56
2023-03-18T18:06:25.497Z,100350.06
2023-03-18T18:08:51.974Z,100338.97
2023-03-18T18:11:22.732Z,100345.56
2023-03-18T18:13:51.469Z,100352.28
2023-03-18T18:16:18.859Z,100359.53
2023-03-18T18:18:48.231Z,100329.84
2023-03-18T18:21:19.823Z,100367.06
2023-03-18T18:23:46.550Z,100352.63
2023-03-18T18:26:15.816Z,100368.22
2023-03-18T18:28:47.972Z,100336.28
2023-03-18T18:31:17.422Z,100365.75
2023-03-18T18:33:45.559Z,100315.28
2023-03-18T18:36:13.414Z,100327.00
2023-03-18T18:38:40.370Z,100338.38
2023-03-18T18:41:07.286Z,100333.88
2023-03-18T18:43:33.630Z,100320.63
2023-03-18T18:46:00.256Z,100369.25
2023-03-18T18:48:35.366Z,100370.72
2023-03-18T18:51:04.167Z,100332.22
2023-03-18T18:53:35.622Z,100351.28
2023-03-18T18:56:15.863Z,100371.34
2023-03-18T18:58:42.337Z,100374.31
2023-03-18T19:01:08.795Z,100367.75
2023-03-18T19:03:35.602Z,100294.78
2023-03-18T19:06:25.609Z,100353.63
2023-03-18T19:08:53.818Z,100229.84
2023-03-18T19:11:20.292Z,100272.75
2023-03-18T19:13:47.575Z,100231.56
2023-03-18T19:16:32.713Z,100386.44
2023-03-18T19:19:00.035Z,100369.63
2023-03-18T19:21:27.291Z,100395.47
2023-03-18T19:23:54.145Z,100306.06
2023-03-18T19:26:21.429Z,100292.03
2023-03-18T19:28:57.634Z,100353.22
2023-03-18T19:31:26.911Z,100392.31
2023-03-18T19:33:53.878Z,100325.28
2023-03-18T19:36:32.630Z,100284.88
2023-03-18T19:39:01.198Z,100367.84
2023-03-18T19:41:28.658Z,100385.09
2023-03-18T19:44:01.738Z,100401.97
2023-03-18T19:46:36.986Z,100387.59
2023-03-18T19:49:10.285Z,100362.34
2023-03-18T19:51:36.660Z,100301.19
2023-03-18T19:54:17.831Z,100323.88
2023-03-18T19:56:44.574Z,100290.94
2023-03-18T19:59:19.922Z,100375.47
2023-03-18T20:01:47.324Z,100398.81
2023-03-18T20:04:16.554Z,100335.22
2023-03-18T20:06:43.074Z,100372.38
2023-03-18T20:09:09.457Z,100405.47
2023-03-18T20:11:35.865Z,100324.31
2023-03-18T20:14:02.248Z,100272.22
2023-03-18T20:16:29.468Z,100277.50
2023-03-18T20:18:55.964Z,100361.19
2023-03-18T20:21:29.403Z,100422.13
2023-03-18T20:24:03.183Z,100439.38
2023-03-18T20:26:29.617Z,100342.81
2023-03-18T20:28:58.310Z,100379.56
2023-03-18T20:31:24.772Z,100424.13
2023-03-18T20:33:51.240Z,100357.50
2023-03-18T20:36:19.389Z,100449.38
2023-03-18T20:38:48.790Z,100364.78
2023-03-18T20:41:17.917Z,100449.50
2023-03-18T20:43:50.174Z,100457.84
2023-03-18T20:46:17.315Z,100468.34
2023-03-18T20:48:44.748Z,100435.19
2023-03-18T20:51:24.380Z,100363.44
2023-03-18T20:53:50.808Z,100383.72
2023-03-18T20:56:19.359Z,100434.59
2023-03-18T20:58:46.013Z,100357.66
2023-03-18T21:01:13.675Z,100387.22
2023-03-18T21:03:40.829Z,100349.22
2023-03-18T21:06:12.710Z,100472.25
2023-03-18T21:08:39.864Z,100481.84
2023-03-18T21:11:13.112Z,100453.84
2023-03-18T21:13:39.636Z,100432.63
2023-03-18T21:16:12.913Z,100446.41
2023-03-18T21:18:41.548Z,100370.56
2023-03-18T21:21:16.838Z,100364.66
2023-03-18T21:23:43.288Z,100464.63
2023-03-18T21:26:09.703Z,100386.50
2023-03-18T21:28:36.126Z,100363.19
2023-03-18T21:31:02.790Z,100462.72
2023-03-18T21:33:32.615Z,100352.78
2023-03-18T21:36:00.113Z,100460.00
2023-03-18T21:38:29.275Z,100465.56
2023-03-18T21:40:56.726Z,100390.34
2023-03-18T21:43:26.412Z,100464.97
2023-03-18T21:45:53.264Z,100366.97
2023-03-18T21:48:21.104Z,100449.38
2023-03-18T21:50:47.802Z,100416.09
2023-03-18T21:53:17.226Z,100464.34
2023-03-18T21:55:43.790Z,100437.31
2023-03-18T21:58:17.503Z,100450.59
2023-03-18T22:00:46.812Z,100426.50
2023-03-18T22:03:15.558Z,100443.25
2023-03-18T22:05:41.946Z,100319.47
2023-03-18T22:08:08.820Z,100428.06
2023-03-18T22:10:35.297Z,100382.91
2023-03-18T22:13:01.657Z,100440.34
2023-03-18T22:15:37.050Z,100438.25
2023-03-18T22:18:04.177Z,100403.13
2023-03-18T22:20:30.859Z,100438.53
2023-03-18T22:22:57.285Z,100348.56
2023-03-18T22:25:36.896Z,100405.28
2023-03-18T22:28:03.820Z,100366.53
2023-03-18T22:30:33.365Z,100320.50
2023-03-18T22:33:01.929Z,100350.00
2023-03-18T22:35:29.729Z,100440.53
2023-03-18T22:37:56.596Z,100339.44
2023-03-18T22:40:29.408Z,100441.00
2023-03-18T22:42:59.148Z,100414.66
2023-03-18T22:45:31.032Z,100402.38
2023-03-18T22:48:04.496Z,100394.81
2023-03-18T22:50:34.451Z,100430.53
2023-03-18T22:53:03.673Z,100414.09
2023-03-18T22:55:35.605Z,100250.22
2023-03-18T22:58:02.362Z,100315.47
2023-03-18T23:00:43.586Z,100424.00
2023-03-18T23:03:14.635Z,100417.19
2023-03-18T23:05:41.108Z,100286.94
2023-03-18T23:08:07.535Z,100417.41
2023-03-18T23:10:33.965Z,100353.25
2023-03-18T23:13:00.388Z,100361.59
2023-03-18T23:15:26.845Z,100315.59
2023-03-18T23:17:53.180Z,100445.78
2023-03-18T23:20:19.515Z,100379.09
2023-03-18T23:22:46.136Z,100405.88
2023-03-18T23:25:16.356Z,100457.66
2023-03-18T23:27:42.773Z,100437.94
2023-03-18T23:30:10.543Z,100322.72
2023-03-18T23:32:37.250Z,100435.50
2023-03-18T23:35:04.042Z,100315.88
2023-03-18T23:37:31.448Z,100443.44
2023-03-18T23:39:57.824Z,100446.22
2023-03-18T23:42:24.216Z,100249.31
2023-03-18T23:44:50.557Z,100383.25
2023-03-18T23:47:17.026Z,100383.88
2023-03-18T23:49:43.373Z,100442.34
2023-03-18T23:52:13.262Z,100443.66
2023-03-18T23:54:40.811Z,100445.63
2023-03-18T23:57:09.252Z,100450.31
2023-03-18T23:59:36.655Z,100442.53
